createdAt,value
2024-04-23T00:01:23.231Z,3.10
2024-04-23T00:03:50.338Z,3.01
2024-04-23T00:06:17.006Z,2.96
2024-04-23T00:08:43.638Z,2.97
2024-04-23T00:11:12.744Z,2.92
2024-04-23T00:13:42.121Z,2.93
2024-04-23T00:16:08.859Z,2.90
2024-04-23T00:18:35.566Z,2.92
2024-04-23T00:21:04.507Z,2.87
2024-04-23T00:23:31.266Z,2.93
2024-04-23T00:25:57.945Z,2.79
2024-04-23T00:28:26.919Z,2.91
2024-04-23T00:30:53.579Z,2.92
2024-04-23T00:33:22.460Z,2.91
2024-04-23T00:35:52.139Z,2.90
2024-04-23T00:38:18.789Z,2.78
2024-04-23T00:40:47.585Z,2.73
2024-04-23T00:43:14.277Z,2.83
2024-04-23T00:45:46.728Z,2.83
2024-04-23T00:48:16.731Z,2.80
2024-04-23T00:50:45.517Z,2.82
2024-04-23T00:53:14.422Z,2.89
2024-04-23T00:55:41.869Z,2.87
2024-04-23T00:58:08.648Z,2.84
2024-04-23T01:00:36.548Z,2.91
2024-04-23T01:03:06.665Z,2.98
2024-04-23T01:05:35.882Z,2.73
2024-04-23T01:08:02.529Z,2.90
2024-04-23T01:10:29.279Z,2.97
2024-04-23T01:12:58.103Z,2.97
2024-04-23T01:15:26.985Z,2.92
2024-04-23T01:17:58.866Z,2.89
2024-04-23T01:20:25.808Z,2.94
2024-04-23T01:22:52.488Z,2.94
2024-04-23T01:25:22.933Z,2.92
2024-04-23T01:27:52.530Z,2.95
2024-04-23T01:30:19.596Z,2.89
2024-04-23T01:32:49.657Z,2.90
2024-04-23T01:35:19.760Z,2.92
2024-04-23T01:37:54.748Z,2.94
2024-04-23T01:40:24.243Z,2.92
2024-04-23T01:42:52.349Z,2.89
2024-04-23T01:45:21.039Z,2.97
2024-04-23T01:47:48.113Z,2.91
2024-04-23T01:50:18.150Z,2.89
2024-04-23T01:52:44.969Z,2.85
2024-04-23T01:55:12.206Z,2.94
2024-04-23T01:57:39.625Z,2.89
2024-04-23T02:00:14.569Z,2.87
2024-04-23T02:02:45.837Z,2.96
2024-04-23T02:05:16.847Z,2.80
2024-04-23T02:07:46.747Z,2.80
2024-04-23T02:10:16.792Z,2.88
2024-04-23T02:12:43.559Z,2.88
2024-04-23T02:15:12.469Z,2.84
2024-04-23T02:17:41.743Z,2.83
2024-04-23T02:20:14.089Z,2.81
2024-04-23T02:22:40.791Z,2.73
2024-04-23T02:25:07.504Z,2.79
2024-04-23T02:27:34.304Z,2.74
2024-04-23T02:30:04.282Z,2.71
2024-04-23T02:32:30.996Z,2.68
2024-04-23T02:35:00.467Z,2.68
2024-04-23T02:37:27.241Z,2.60
2024-04-23T02:39:53.940Z,2.63
2024-04-23T02:42:20.603Z,2.70
2024-04-23T02:44:47.269Z,2.64
2024-04-23T02:47:14.150Z,2.62
2024-04-23T02:49:40.887Z,2.68
2024-04-23T02:52:07.661Z,2.72
2024-04-23T02:54:34.299Z,2.63
2024-04-23T02:57:08.047Z,2.68
2024-04-23T02:59:39.465Z,2.62
2024-04-23T03:02:07.685Z,2.70
2024-04-23T03:04:36.907Z,2.67
2024-04-23T03:07:09.050Z,2.67
2024-04-23T03:09:40.323Z,2.66
2024-04-23T03:12:09.570Z,2.69
2024-04-23T03:14:36.331Z,2.72
2024-04-23T03:17:03.085Z,2.65
2024-04-23T03:19:29.840Z,2.64
2024-04-23T03:22:00.299Z,2.53
2024-04-23T03:24:29.302Z,2.57
2024-04-23T03:26:55.955Z,2.64
2024-04-23T03:29:22.645Z,2.66
2024-04-23T03:32:05.862Z,2.65
2024-04-23T03:34:33.144Z,2.53
2024-04-23T03:37:03.494Z,2.52
2024-04-23T03:39:30.299Z,2.53
2024-04-23T03:41:57.853Z,2.52
2024-04-23T03:44:30.846Z,2.55
2024-04-23T03:46:57.919Z,2.42
2024-04-23T03:49:24.818Z,2.52
2024-04-23T03:51:53.744Z,2.46
2024-04-23T03:54:22.540Z,2.52
2024-04-23T03:56:51.551Z,2.60
2024-04-23T03:59:20.695Z,2.42
2024-04-23T04:01:47.616Z,2.42
2024-04-23T04:04:35.387Z,2.49
2024-04-23T04:07:02.202Z,2.44
2024-04-23T04:09:30.949Z,2.61
2024-04-23T04:11:59.117Z,2.57
2024-04-23T04:14:28.038Z,2.50
2024-04-23T04:16:54.975Z,2.49
2024-04-23T04:19:23.784Z,2.49
2024-04-23T04:21:56.747Z,2.39
2024-04-23T04:24:23.446Z,2.48
2024-04-23T04:26:50.103Z,2.53
2024-04-23T04:29:16.825Z,2.50
2024-04-23T04:31:45.841Z,2.55
2024-04-23T04:34:12.528Z,2.56
2024-04-23T04:36:43.944Z,2.56
2024-04-23T04:39:10.653Z,2.62
2024-04-23T04:41:37.546Z,2.61
2024-04-23T04:44:04.946Z,2.65
2024-04-23T04:46:31.750Z,2.46
2024-04-23T04:48:58.445Z,2.62
2024-04-23T04:51:28.202Z,2.64
2024-04-23T04:53:57.129Z,2.45
2024-04-23T04:56:23.872Z,2.50
2024-04-23T04:58:50.620Z,2.49
2024-04-23T05:01:19.286Z,2.48
2024-04-23T05:03:48.394Z,2.56
2024-04-23T05:06:15.059Z,2.71
2024-04-23T05:08:44.053Z,2.62
2024-04-23T05:11:10.888Z,2.67
2024-04-23T05:13:37.649Z,2.57
2024-04-23T05:16:04.613Z,2.56
2024-04-23T05:18:31.784Z,2.60
2024-04-23T05:20:59.207Z,2.62
2024-04-23T05:23:25.857Z,2.57
2024-04-23T05:25:54.615Z,2.60
2024-04-23T05:28:21.289Z,2.77
2024-04-23T05:31:06.768Z,2.80
2024-04-23T05:33:33.508Z,2.62
2024-04-23T05:36:00.294Z,2.69
2024-04-23T05:38:28.637Z,2.79
2024-04-23T05:40:55.717Z,2.66
2024-04-23T05:43:22.479Z,2.83
2024-04-23T05:45:51.404Z,2.78
2024-04-23T05:48:55.925Z,2.77
2024-04-23T05:52:09.513Z,2.71
2024-04-23T05:55:20.288Z,2.85
2024-04-23T05:57:48.611Z,2.91
2024-04-23T06:00:15.304Z,2.79
2024-04-23T06:02:42.204Z,3.01
2024-04-23T06:05:11.265Z,2.97
2024-04-23T06:07:42.625Z,2.94
2024-04-23T06:10:09.643Z,3.14
2024-04-23T06:12:36.409Z,2.95
2024-04-23T06:15:05.426Z,3.10
2024-04-23T06:17:41.595Z,3.30
2024-04-23T06:20:13.087Z,3.25
2024-04-23T06:22:40.925Z,3.23
2024-04-23T06:25:11.682Z,3.28
2024-04-23T06:27:39.999Z,2.88
2024-04-23T06:30:12.067Z,3.21
2024-04-23T06:32:42.811Z,3.18
2024-04-23T06:35:10.904Z,3.35
2024-04-23T06:37:40.896Z,3.17
2024-04-23T06:40:11.072Z,3.45
2024-04-23T06:42:39.103Z,3.45
2024-04-23T06:45:06.277Z,3.36
2024-04-23T06:47:37.847Z,3.17
2024-04-23T06:50:06.106Z,3.03
2024-04-23T06:52:33.257Z,3.25
2024-04-23T06:55:02.531Z,2.79
2024-04-23T06:57:29.430Z,2.83
2024-04-23T06:59:56.069Z,2.88
2024-04-23T07:02:22.895Z,2.89
2024-04-23T07:04:49.620Z,2.96
2024-04-23T07:07:18.596Z,3.26
2024-04-23T07:09:47.629Z,3.26
2024-04-23T07:12:14.284Z,3.60
2024-04-23T07:14:40.980Z,3.66
2024-04-23T07:17:07.706Z,3.80
2024-04-23T07:19:36.961Z,3.44
2024-04-23T07:22:08.140Z,3.49
2024-04-23T07:24:37.106Z,3.71
2024-04-23T07:27:06.328Z,4.05
2024-04-23T07:29:33.014Z,4.09
2024-04-23T07:31:59.924Z,4.62
2024-04-23T07:34:26.645Z,4.25
2024-04-23T07:36:53.386Z,4.57
2024-04-23T07:39:20.289Z,4.91
2024-04-23T07:41:49.454Z,5.28
2024-04-23T07:44:16.155Z,5.26
2024-04-23T07:46:45.327Z,5.58
2024-04-23T07:49:12.080Z,5.70
2024-04-23T07:51:38.756Z,5.99
2024-04-23T07:54:07.674Z,5.78
2024-04-23T07:56:36.660Z,5.97
2024-04-23T07:59:03.517Z,5.50
2024-04-23T08:01:32.673Z,4.90
2024-04-23T08:03:59.478Z,5.27
2024-04-23T08:06:26.204Z,5.21
2024-04-23T08:08:52.929Z,6.44
2024-04-23T08:11:19.841Z,6.99
2024-04-23T08:13:48.841Z,6.13
2024-04-23T08:16:15.573Z,6.06
2024-04-23T08:18:42.518Z,6.31
2024-04-23T08:21:11.052Z,6.49
2024-04-23T08:23:40.000Z,5.97
2024-04-23T08:26:16.794Z,5.91
2024-04-23T08:28:45.261Z,6.31
2024-04-23T08:31:14.486Z,5.85
2024-04-23T08:33:41.293Z,5.53
2024-04-23T08:36:10.354Z,5.79
2024-04-23T08:38:37.041Z,5.39
2024-04-23T08:41:07.679Z,6.19
2024-04-23T08:43:47.632Z,6.32
2024-04-23T08:46:14.754Z,5.96
2024-04-23T08:48:42.527Z,5.74
2024-04-23T08:51:12.782Z,5.72
2024-04-23T08:53:39.701Z,5.59
2024-04-23T08:56:09.701Z,5.42
2024-04-23T08:58:40.706Z,5.28
2024-04-23T09:01:14.024Z,5.13
2024-04-23T09:03:47.916Z,5.24
2024-04-23T09:06:16.829Z,4.95
2024-04-23T09:08:44.645Z,5.35
2024-04-23T09:11:14.408Z,5.23
2024-04-23T09:13:41.788Z,5.39
2024-04-23T09:16:08.474Z,5.36
2024-04-23T09:18:35.185Z,5.05
2024-04-23T09:21:06.430Z,4.89
2024-04-23T09:23:35.572Z,5.09
2024-04-23T09:26:05.451Z,5.72
2024-04-23T09:28:36.459Z,5.40
2024-04-23T09:31:04.164Z,6.34
2024-04-23T09:33:33.412Z,6.35
2024-04-23T09:36:04.319Z,6.43
2024-04-23T09:38:49.323Z,6.32
2024-04-23T09:41:16.379Z,6.67
2024-04-23T09:43:57.819Z,6.60
2024-04-23T09:46:25.248Z,6.63
2024-04-23T09:48:55.115Z,5.96
2024-04-23T09:51:24.017Z,6.28
2024-04-23T09:53:53.916Z,6.84
2024-04-23T09:56:21.580Z,6.53
2024-04-23T09:58:49.131Z,6.89
2024-04-23T10:01:20.913Z,7.09
2024-04-23T10:03:52.445Z,7.38
2024-04-23T10:06:24.997Z,7.38
2024-04-23T10:09:23.893Z,7.16
2024-04-23T10:12:07.250Z,6.78
2024-04-23T10:15:02.119Z,7.22
2024-04-23T10:17:41.295Z,7.56
2024-04-23T10:20:09.960Z,7.43
2024-04-23T10:22:39.961Z,7.52
2024-04-23T10:25:10.387Z,8.11
2024-04-23T10:27:39.057Z,7.78
2024-04-23T10:30:06.636Z,8.20
2024-04-23T10:32:34.572Z,8.84
2024-04-23T10:35:09.129Z,9.16
2024-04-23T10:37:39.065Z,7.79
2024-04-23T10:40:10.749Z,7.22
2024-04-23T10:42:37.484Z,7.66
2024-04-23T10:45:04.872Z,7.98
2024-04-23T10:47:33.864Z,7.71
2024-04-23T10:50:06.785Z,7.79
2024-04-23T10:52:36.137Z,7.84
2024-04-23T10:55:05.428Z,7.75
2024-04-23T10:57:32.367Z,7.54
2024-04-23T11:00:02.925Z,7.82
2024-04-23T11:02:37.715Z,8.59
2024-04-23T11:05:19.721Z,8.28
2024-04-23T11:07:52.620Z,8.18
2024-04-23T11:10:20.901Z,7.84
2024-04-23T11:12:47.579Z,8.18
2024-04-23T11:15:18.684Z,8.32
2024-04-23T11:17:45.472Z,8.57
2024-04-23T11:20:12.360Z,8.59
2024-04-23T11:22:41.397Z,8.24
2024-04-23T11:25:12.752Z,8.13
2024-04-23T11:27:39.796Z,8.26
2024-04-23T11:30:15.186Z,8.00
2024-04-23T11:32:47.021Z,7.68
2024-04-23T11:35:15.567Z,7.52
2024-04-23T11:37:46.972Z,7.07
2024-04-23T11:40:13.726Z,7.38
2024-04-23T11:42:48.549Z,7.73
2024-04-23T11:45:15.728Z,7.20
2024-04-23T11:47:42.627Z,7.80
2024-04-23T11:50:09.604Z,8.05
2024-04-23T11:52:39.122Z,8.13
2024-04-23T11:55:11.217Z,7.97
2024-04-23T11:57:40.110Z,8.33
2024-04-23T12:00:07.594Z,8.44
2024-04-23T12:02:34.276Z,8.32
2024-04-23T12:05:05.902Z,8.04
2024-04-23T12:07:37.484Z,7.75
2024-04-23T12:10:07.107Z,8.02
2024-04-23T12:12:37.894Z,7.99
2024-04-23T12:15:06.114Z,7.59
2024-04-23T12:17:33.964Z,7.76
2024-04-23T12:20:00.799Z,7.62
2024-04-23T12:22:27.511Z,7.69
2024-04-23T12:24:54.501Z,7.44
2024-04-23T12:27:23.485Z,7.31
2024-04-23T12:29:50.247Z,7.02
2024-04-23T12:32:24.681Z,6.80
2024-04-23T12:34:59.420Z,6.74
2024-04-23T12:37:28.845Z,6.94
2024-04-23T12:39:55.542Z,6.90
2024-04-23T12:42:26.431Z,6.87
2024-04-23T12:44:55.682Z,6.87
2024-04-23T12:47:26.885Z,7.58
2024-04-23T12:49:56.632Z,8.37
2024-04-23T12:52:23.332Z,7.79
2024-04-23T12:54:52.228Z,7.69
2024-04-23T12:57:19.387Z,7.61
2024-04-23T12:59:46.081Z,8.48
2024-04-23T13:02:15.772Z,8.46
2024-04-23T13:04:47.309Z,8.44
2024-04-23T13:07:14.380Z,8.42
2024-04-23T13:09:43.786Z,8.21
2024-04-23T13:12:13.397Z,7.86
2024-04-23T13:14:42.317Z,8.17
2024-04-23T13:17:11.568Z,8.52
2024-04-23T13:19:39.424Z,8.56
2024-04-23T13:22:10.958Z,9.13
2024-04-23T13:24:37.613Z,8.65
2024-04-23T13:27:04.855Z,8.53
2024-04-23T13:29:33.689Z,8.72
2024-04-23T13:32:02.981Z,8.78
2024-04-23T13:34:34.587Z,8.37
2024-04-23T13:37:01.416Z,8.84
2024-04-23T13:39:30.324Z,8.71
2024-04-23T13:41:59.243Z,8.41
2024-04-23T13:44:27.604Z,7.67
2024-04-23T13:47:01.540Z,7.71
2024-04-23T13:49:28.248Z,7.54
2024-04-23T13:51:54.912Z,7.74
2024-04-23T13:54:23.735Z,7.35
2024-04-23T13:56:50.416Z,7.55
2024-04-23T13:59:19.087Z,7.87
2024-04-23T14:01:47.963Z,7.73
2024-04-23T14:04:14.758Z,7.44
2024-04-23T14:06:41.519Z,7.28
2024-04-23T14:09:08.208Z,7.31
2024-04-23T14:11:35.060Z,7.54
2024-04-23T14:14:01.937Z,7.68
2024-04-23T14:16:29.707Z,7.78
2024-04-23T14:18:56.451Z,8.46
2024-04-23T14:21:23.138Z,8.43
2024-04-23T14:23:51.922Z,8.25
2024-04-23T14:26:21.790Z,8.62
2024-04-23T14:28:54.002Z,8.65
2024-04-23T14:31:23.248Z,8.45
2024-04-23T14:33:52.269Z,8.93
2024-04-23T14:36:18.994Z,8.45
2024-04-23T14:38:47.442Z,8.26
2024-04-23T14:41:14.327Z,8.47
2024-04-23T14:43:44.136Z,8.17
2024-04-23T14:46:13.832Z,7.76
2024-04-23T14:48:43.307Z,7.49
2024-04-23T14:51:10.932Z,6.96
2024-04-23T14:53:39.980Z,7.26
2024-04-23T14:56:08.024Z,7.39
2024-04-23T14:58:35.810Z,7.19
2024-04-23T15:01:10.094Z,6.97
2024-04-23T15:03:36.839Z,7.05
2024-04-23T15:06:10.189Z,6.91
2024-04-23T15:08:44.234Z,6.73
2024-04-23T15:11:11.247Z,6.73
2024-04-23T15:13:40.757Z,6.59
2024-04-23T15:16:08.986Z,6.49
2024-04-23T15:18:40.655Z,6.44
2024-04-23T15:21:12.810Z,6.32
2024-04-23T15:23:42.025Z,6.20
2024-04-23T15:26:08.715Z,6.25
2024-04-23T15:28:39.176Z,6.30
2024-04-23T15:31:07.237Z,6.36
2024-04-23T15:33:41.642Z,6.47
2024-04-23T15:36:17.133Z,6.33
2024-04-23T15:38:55.093Z,6.40
2024-04-23T15:41:23.865Z,6.42
2024-04-23T15:43:50.714Z,6.22
2024-04-23T15:46:17.707Z,6.20
2024-04-23T15:48:44.671Z,6.45
2024-04-23T15:51:11.576Z,6.43
2024-04-23T15:53:38.409Z,6.64
2024-04-23T15:56:05.808Z,6.48
2024-04-23T15:58:32.693Z,6.49
2024-04-23T16:01:09.426Z,6.31
2024-04-23T16:03:37.743Z,6.23
2024-04-23T16:06:07.402Z,6.31
2024-04-23T16:08:35.235Z,6.10
2024-04-23T16:11:06.750Z,6.11
2024-04-23T16:13:33.647Z,6.16
2024-04-23T16:16:06.559Z,6.23
2024-04-23T16:18:36.520Z,6.22
2024-04-23T16:21:04.632Z,6.28
2024-04-23T16:23:35.854Z,6.24
2024-04-23T16:26:04.229Z,6.17
2024-04-23T16:28:30.931Z,6.38
2024-04-23T16:31:04.407Z,6.21
2024-04-23T16:33:36.699Z,6.16
2024-04-23T16:36:05.217Z,6.29
2024-04-23T16:38:32.164Z,6.42
2024-04-23T16:41:01.184Z,6.11
2024-04-23T16:43:28.305Z,6.24
2024-04-23T16:45:57.194Z,6.11
2024-04-23T16:48:26.175Z,6.27
2024-04-23T16:50:54.676Z,6.28
2024-04-23T16:53:21.472Z,6.08
2024-04-23T16:55:48.317Z,6.00
2024-04-23T16:58:15.072Z,6.21
2024-04-23T17:00:42.086Z,6.27
2024-04-23T17:03:09.008Z,6.24
2024-04-23T17:05:40.558Z,6.22
2024-04-23T17:08:09.655Z,6.17
2024-04-23T17:10:36.392Z,6.19
2024-04-23T17:13:05.934Z,6.17
2024-04-23T17:15:32.691Z,6.14
2024-04-23T17:18:04.413Z,5.94
2024-04-23T17:20:37.383Z,5.87
2024-04-23T17:23:04.490Z,5.80
2024-04-23T17:25:37.012Z,5.70
2024-04-23T17:28:06.419Z,5.75
2024-04-23T17:30:35.421Z,5.74
2024-04-23T17:33:04.639Z,5.73
2024-04-23T17:35:33.726Z,5.72
2024-04-23T17:38:03.441Z,5.64
2024-04-23T17:40:30.155Z,5.52
2024-04-23T17:42:57.715Z,5.48
2024-04-23T17:45:25.434Z,5.48
2024-04-23T17:47:55.302Z,5.36
2024-04-23T17:50:22.113Z,5.32
2024-04-23T17:52:50.990Z,5.16
2024-04-23T17:55:18.076Z,5.33
2024-04-23T17:57:44.720Z,5.31
2024-04-23T18:00:11.779Z,5.24
2024-04-23T18:02:41.055Z,5.28
2024-04-23T18:05:09.445Z,5.19
2024-04-23T18:07:36.185Z,5.24
2024-04-23T18:10:03.088Z,5.24
2024-04-23T18:12:29.804Z,5.15
2024-04-23T18:14:58.057Z,5.19
2024-04-23T18:17:24.985Z,5.12
2024-04-23T18:19:54.119Z,5.13
2024-04-23T18:22:22.950Z,5.09
2024-04-23T18:24:52.110Z,4.78
2024-04-23T18:27:20.904Z,5.03
2024-04-23T18:29:47.674Z,4.86
2024-04-23T18:32:14.402Z,4.99
2024-04-23T18:34:41.179Z,4.98
2024-04-23T18:37:10.266Z,5.09
2024-04-23T18:39:37.035Z,5.09
2024-04-23T18:42:07.220Z,5.04
2024-04-23T18:44:35.196Z,4.97
2024-04-23T18:47:02.053Z,5.01
2024-04-23T18:49:28.751Z,4.89
2024-04-23T18:51:55.441Z,4.97
2024-04-23T18:54:22.195Z,4.84
2024-04-23T18:56:49.824Z,4.81
2024-04-23T18:59:16.596Z,4.95
2024-04-23T19:01:45.829Z,4.93
2024-04-23T19:04:12.550Z,4.84
2024-04-23T19:06:39.209Z,4.78
2024-04-23T19:09:05.861Z,4.80
2024-04-23T19:11:35.099Z,4.86
2024-04-23T19:14:16.127Z,4.93
2024-04-23T19:16:47.978Z,4.87
2024-04-23T19:19:16.901Z,4.60
2024-04-23T19:21:45.964Z,4.57
2024-04-23T19:24:17.155Z,4.63
2024-04-23T19:26:48.843Z,4.68
2024-04-23T19:29:16.473Z,4.58
2024-04-23T19:31:43.406Z,4.42
2024-04-23T19:34:10.140Z,4.53
2024-04-23T19:36:36.864Z,4.59
2024-04-23T19:39:03.692Z,4.63
2024-04-23T19:41:32.778Z,4.49
2024-04-23T19:43:59.618Z,4.61
2024-04-23T19:46:26.954Z,4.58
2024-04-23T19:48:56.838Z,4.41
2024-04-23T19:51:28.478Z,4.58
2024-04-23T19:53:57.463Z,4.67
2024-04-23T19:56:27.973Z,4.74
2024-04-23T19:58:57.472Z,4.79
2024-04-23T20:01:24.606Z,4.85
2024-04-23T20:03:51.522Z,4.86
2024-04-23T20:06:18.310Z,4.80
2024-04-23T20:08:45.052Z,4.88
2024-04-23T20:11:12.114Z,4.93
2024-04-23T20:13:41.705Z,4.95
2024-04-23T20:16:08.424Z,4.85
2024-04-23T20:18:38.492Z,4.87
2024-04-23T20:21:11.874Z,4.93
2024-04-23T20:23:38.526Z,4.77
2024-04-23T20:26:05.215Z,4.64
2024-04-23T20:28:31.952Z,4.69
2024-04-23T20:31:04.505Z,4.63
2024-04-23T20:33:33.518Z,4.67
2024-04-23T20:36:01.652Z,4.67
2024-04-23T20:38:28.392Z,4.79
2024-04-23T20:40:55.120Z,4.63
2024-04-23T20:43:23.979Z,4.67
2024-04-23T20:45:50.683Z,4.77
2024-04-23T20:48:19.765Z,4.83
2024-04-23T20:50:54.184Z,4.55
2024-04-23T20:53:20.942Z,4.69
2024-04-23T20:55:50.197Z,4.78
2024-04-23T20:58:16.922Z,4.81
2024-04-23T21:00:43.668Z,4.83
2024-04-23T21:03:12.964Z,4.84
2024-04-23T21:05:40.331Z,4.83
2024-04-23T21:08:11.563Z,4.83
2024-04-23T21:10:39.038Z,4.77
2024-04-23T21:13:05.934Z,4.72
2024-04-23T21:15:33.194Z,4.75
2024-04-23T21:18:00.164Z,4.72
2024-04-23T21:20:29.495Z,4.70
2024-04-23T21:22:56.303Z,4.68
2024-04-23T21:25:25.416Z,4.71
2024-04-23T21:27:54.424Z,4.72
2024-04-23T21:30:23.610Z,4.73
2024-04-23T21:32:50.370Z,4.74
2024-04-23T21:35:24.317Z,4.70
2024-04-23T21:37:51.045Z,4.73
2024-04-23T21:40:20.183Z,4.73
2024-04-23T21:42:46.847Z,4.72
2024-04-23T21:45:13.597Z,4.72
2024-04-23T21:47:40.423Z,4.68
2024-04-23T21:50:09.949Z,4.63
2024-04-23T21:52:42.127Z,4.64
2024-04-23T21:55:10.072Z,4.63
2024-04-23T21:57:37.115Z,4.64
2024-04-23T22:00:09.369Z,4.64
2024-04-23T22:02:38.646Z,4.57
2024-04-23T22:05:08.746Z,4.57
2024-04-23T22:07:37.783Z,4.55
2024-04-23T22:10:06.939Z,4.53
2024-04-23T22:12:33.610Z,4.51
2024-04-23T22:15:00.338Z,4.51
2024-04-23T22:17:27.088Z,4.50
2024-04-23T22:19:53.958Z,4.44
2024-04-23T22:22:20.661Z,4.38
2024-04-23T22:24:49.597Z,4.38
2024-04-23T22:27:22.345Z,4.33
2024-04-23T22:29:49.080Z,4.31
2024-04-23T22:32:18.212Z,4.28
2024-04-23T22:34:47.462Z,4.26
2024-04-23T22:37:14.173Z,4.24
2024-04-23T22:39:40.887Z,4.27
2024-04-23T22:42:07.654Z,4.21
2024-04-23T22:44:34.354Z,4.14
2024-04-23T22:47:03.138Z,4.11
2024-04-23T22:49:29.850Z,4.05
2024-04-23T22:51:58.464Z,4.05
2024-04-23T22:54:28.010Z,4.02
2024-04-23T22:56:54.682Z,3.98
2024-04-23T22:59:22.645Z,4.01
2024-04-23T23:01:51.802Z,4.03
2024-04-23T23:04:18.486Z,4.01
2024-04-23T23:06:45.191Z,3.99
2024-04-23T23:09:14.240Z,3.98
2024-04-23T23:11:41.405Z,3.96
2024-04-23T23:14:08.151Z,3.89
2024-04-23T23:16:37.408Z,3.89
2024-04-23T23:19:06.296Z,3.86
2024-04-23T23:21:35.505Z,3.79
2024-04-23T23:24:04.797Z,3.71
2024-04-23T23:26:37.739Z,3.67
2024-04-23T23:29:05.143Z,3.72
2024-04-23T23:31:34.219Z,3.69
2024-04-23T23:34:00.887Z,3.68
2024-04-23T23:36:27.594Z,3.58
2024-04-23T23:38:56.618Z,3.54
2024-04-23T23:41:23.350Z,3.54
2024-04-23T23:43:50.058Z,3.49
2024-04-23T23:46:16.719Z,3.44
2024-04-23T23:48:45.913Z,3.35
2024-04-23T23:51:14.811Z,3.17
2024-04-23T23:53:43.711Z,3.22
2024-04-23T23:56:12.605Z,3.10
2024-04-23T23:58:39.288Z,2.98
